sensor_id;sensor_type;location;lat;lon;timestamp;temperature;humidity
1453;DHT22;720;47.738;7.998;2022-11-20T00:00:44;6.60;99.90
1453;DHT22;720;47.738;7.998;2022-11-20T00:03:09;6.60;99.90
1453;DHT22;720;47.738;7.998;2022-11-20T00:05:35;6.50;99.90
1453;DHT22;720;47.738;7.998;2022-11-20T00:08:01;6.50;99.90
1453;DHT22;720;47.738;7.998;2022-11-20T00:10:26;6.60;99.90
1453;DHT22;720;47.738;7.998;2022-11-20T00:12:52;6.70;99.90
1453;DHT22;720;47.738;7.998;2022-11-20T00:15:17;6.70;99.90
1453;DHT22;720;47.738;7.998;2022-11-20T00:17:43;6.70;99.90
1453;DHT22;720;47.738;7.998;2022-11-20T00:20:09;6.70;99.90
1453;DHT22;720;47.738;7.998;2022-11-20T00:22:35;6.50;99.90
1453;DHT22;720;47.738;7.998;2022-11-20T00:25:01;6.40;99.90
1453;DHT22;720;47.738;7.998;2022-11-20T00:27:26;6.30;99.90
1453;DHT22;720;47.738;7.998;2022-11-20T00:29:52;6.30;99.90
1453;DHT22;720;47.738;7.998;2022-11-20T00:32:17;6.30;99.90
1453;DHT22;720;47.738;7.998;2022-11-20T00:34:43;6.30;99.90
1453;DHT22;720;47.738;7.998;2022-11-20T00:37:09;6.40;99.90
1453;DHT22;720;47.738;7.998;2022-11-20T00:39:34;6.50;99.90
1453;DHT22;720;47.738;7.998;2022-11-20T00:42:00;6.60;99.90
1453;DHT22;720;47.738;7.998;2022-11-20T00:44:25;6.60;99.90
1453;DHT22;720;47.738;7.998;2022-11-20T00:46:51;6.60;99.90
1453;DHT22;720;47.738;7.998;2022-11-20T00:49:17;6.60;99.90
1453;DHT22;720;47.738;7.998;2022-11-20T00:51:42;6.60;99.90
1453;DHT22;720;47.738;7.998;2022-11-20T00:54:08;6.60;99.90
1453;DHT22;720;47.738;7.998;2022-11-20T00:56:33;6.50;99.90
1453;DHT22;720;47.738;7.998;2022-11-20T00:59:00;6.50;99.90
1453;DHT22;720;47.738;7.998;2022-11-20T01:01:26;6.50;99.90
1453;DHT22;720;47.738;7.998;2022-11-20T01:03:55;6.40;99.90
1453;DHT22;720;47.738;7.998;2022-11-20T01:06:24;6.40;99.90
1453;DHT22;720;47.738;7.998;2022-11-20T01:08:52;6.30;99.90
1453;DHT22;720;47.738;7.998;2022-11-20T01:11:21;6.20;99.90
1453;DHT22;720;47.738;7.998;2022-11-20T01:13:49;6.20;99.90
1453;DHT22;720;47.738;7.998;2022-11-20T01:16:21;6.30;99.90
1453;DHT22;720;47.738;7.998;2022-11-20T01:18:49;6.20;99.90
1453;DHT22;720;47.738;7.998;2022-11-20T01:21:18;6.10;99.90
1453;DHT22;720;47.738;7.998;2022-11-20T01:23:44;5.90;99.90
1453;DHT22;720;47.738;7.998;2022-11-20T01:26:13;5.90;99.90
1453;DHT22;720;47.738;7.998;2022-11-20T01:28:40;5.80;99.90
1453;DHT22;720;47.738;7.998;2022-11-20T01:33:45;5.70;99.90
1453;DHT22;720;47.738;7.998;2022-11-20T01:36:12;5.60;99.90
1453;DHT22;720;47.738;7.998;2022-11-20T01:38:38;5.30;99.90
1453;DHT22;720;47.738;7.998;2022-11-20T01:41:05;5.20;99.90
1453;DHT22;720;47.738;7.998;2022-11-20T01:43:31;5.20;99.90
1453;DHT22;720;47.738;7.998;2022-11-20T01:46:14;5.30;99.90
1453;DHT22;720;47.738;7.998;2022-11-20T01:51:12;5.30;99.90
1453;DHT22;720;47.738;7.998;2022-11-20T01:53:40;5.30;99.90
1453;DHT22;720;47.738;7.998;2022-11-20T01:56:09;5.10;99.90
1453;DHT22;720;47.738;7.998;2022-11-20T01:58:38;5.00;99.90
1453;DHT22;720;47.738;7.998;2022-11-20T02:01:07;4.90;99.90
1453;DHT22;720;47.738;7.998;2022-11-20T02:03:33;5.00;99.90
1453;DHT22;720;47.738;7.998;2022-11-20T02:08:28;5.00;99.90
1453;DHT22;720;47.738;7.998;2022-11-20T02:10:53;5.10;99.90
1453;DHT22;720;47.738;7.998;2022-11-20T02:13:19;5.10;99.90
1453;DHT22;720;47.738;7.998;2022-11-20T02:16:03;5.10;99.90
1453;DHT22;720;47.738;7.998;2022-11-20T02:18:30;5.20;99.90
1453;DHT22;720;47.738;7.998;2022-11-20T02:26:28;5.20;99.90
1453;DHT22;720;47.738;7.998;2022-11-20T02:28:55;5.20;99.90
1453;DHT22;720;47.738;7.998;2022-11-20T02:31:21;5.30;99.90
1453;DHT22;720;47.738;7.998;2022-11-20T02:33:47;5.40;99.90
1453;DHT22;720;47.738;7.998;2022-11-20T02:36:15;5.30;99.90
1453;DHT22;720;47.738;7.998;2022-11-20T02:38:41;5.30;99.90
1453;DHT22;720;47.738;7.998;2022-11-20T02:41:08;5.20;99.90
1453;DHT22;720;47.738;7.998;2022-11-20T02:43:34;5.10;99.90
1453;DHT22;720;47.738;7.998;2022-11-20T02:45:59;5.10;99.90
1453;DHT22;720;47.738;7.998;2022-11-20T02:48:25;5.00;99.90
1453;DHT22;720;47.738;7.998;2022-11-20T02:50:51;4.80;99.90
1453;DHT22;720;47.738;7.998;2022-11-20T02:53:16;4.80;99.90
1453;DHT22;720;47.738;7.998;2022-11-20T02:55:42;4.80;99.90
1453;DHT22;720;47.738;7.998;2022-11-20T02:58:08;4.80;99.90
1453;DHT22;720;47.738;7.998;2022-11-20T03:00:34;4.80;99.90
1453;DHT22;720;47.738;7.998;2022-11-20T03:03:01;4.70;99.90
1453;DHT22;720;47.738;7.998;2022-11-20T03:05:26;4.70;99.90
1453;DHT22;720;47.738;7.998;2022-11-20T03:07:52;4.70;99.90
1453;DHT22;720;47.738;7.998;2022-11-20T03:10:17;4.80;99.90
1453;DHT22;720;47.738;7.998;2022-11-20T03:12:43;4.80;99.90
1453;DHT22;720;47.738;7.998;2022-11-20T03:15:09;4.90;99.90
1453;DHT22;720;47.738;7.998;2022-11-20T03:17:35;5.00;99.90
1453;DHT22;720;47.738;7.998;2022-11-20T03:20:01;5.10;99.90
1453;DHT22;720;47.738;7.998;2022-11-20T03:22:29;5.20;99.90
1453;DHT22;720;47.738;7.998;2022-11-20T03:24:55;5.30;99.90
1453;DHT22;720;47.738;7.998;2022-11-20T03:27:21;5.30;99.90
1453;DHT22;720;47.738;7.998;2022-11-20T03:29:46;5.30;99.90
1453;DHT22;720;47.738;7.998;2022-11-20T03:32:12;5.40;99.90
1453;DHT22;720;47.738;7.998;2022-11-20T03:34:37;5.50;99.90
1453;DHT22;720;47.738;7.998;2022-11-20T03:37:03;5.50;99.90
1453;DHT22;720;47.738;7.998;2022-11-20T03:39:29;5.60;99.90
1453;DHT22;720;47.738;7.998;2022-11-20T03:41:54;5.70;99.90
1453;DHT22;720;47.738;7.998;2022-11-20T03:44:21;5.80;99.90
1453;DHT22;720;47.738;7.998;2022-11-20T03:46:46;5.90;99.90
1453;DHT22;720;47.738;7.998;2022-11-20T03:49:12;5.90;99.90
1453;DHT22;720;47.738;7.998;2022-11-20T03:51:38;5.80;99.90
1453;DHT22;720;47.738;7.998;2022-11-20T03:54:07;5.90;99.90
1453;DHT22;720;47.738;7.998;2022-11-20T03:56:37;5.90;99.90
1453;DHT22;720;47.738;7.998;2022-11-20T03:59:03;5.90;99.90
1453;DHT22;720;47.738;7.998;2022-11-20T04:01:34;5.90;99.90
1453;DHT22;720;47.738;7.998;2022-11-20T04:04:00;5.90;99.90
1453;DHT22;720;47.738;7.998;2022-11-20T04:06:33;6.00;99.90
1453;DHT22;720;47.738;7.998;2022-11-20T04:08:59;6.00;99.90
1453;DHT22;720;47.738;7.998;2022-11-20T04:11:30;6.00;99.90
1453;DHT22;720;47.738;7.998;2022-11-20T04:13:58;6.10;99.90
1453;DHT22;720;47.738;7.998;2022-11-20T04:16:25;6.20;99.90
1453;DHT22;720;47.738;7.998;2022-11-20T04:18:52;6.10;99.90
1453;DHT22;720;47.738;7.998;2022-11-20T04:21:18;6.20;99.90
1453;DHT22;720;47.738;7.998;2022-11-20T04:23:44;6.20;99.90
1453;DHT22;720;47.738;7.998;2022-11-20T04:26:11;6.30;99.90
1453;DHT22;720;47.738;7.998;2022-11-20T04:28:38;6.40;99.90
1453;DHT22;720;47.738;7.998;2022-11-20T04:31:08;6.30;99.90
1453;DHT22;720;47.738;7.998;2022-11-20T04:33:35;6.30;99.90
1453;DHT22;720;47.738;7.998;2022-11-20T04:36:03;6.30;99.90
1453;DHT22;720;47.738;7.998;2022-11-20T04:38:29;6.20;99.90
1453;DHT22;720;47.738;7.998;2022-11-20T04:41:03;6.10;99.90
1453;DHT22;720;47.738;7.998;2022-11-20T04:43:29;6.10;99.90
1453;DHT22;720;47.738;7.998;2022-11-20T04:45:56;6.10;99.90
1453;DHT22;720;47.738;7.998;2022-11-20T04:48:22;6.20;99.90
1453;DHT22;720;47.738;7.998;2022-11-20T04:50:48;6.20;99.90
1453;DHT22;720;47.738;7.998;2022-11-20T04:53:14;6.20;99.90
1453;DHT22;720;47.738;7.998;2022-11-20T04:55:39;6.20;99.90
1453;DHT22;720;47.738;7.998;2022-11-20T04:58:06;6.00;99.90
1453;DHT22;720;47.738;7.998;2022-11-20T05:00:32;5.90;99.90
1453;DHT22;720;47.738;7.998;2022-11-20T05:02:58;5.80;99.90
1453;DHT22;720;47.738;7.998;2022-11-20T05:05:23;5.70;99.90
1453;DHT22;720;47.738;7.998;2022-11-20T05:07:49;5.60;99.90
1453;DHT22;720;47.738;7.998;2022-11-20T05:10:15;5.60;99.90
1453;DHT22;720;47.738;7.998;2022-11-20T05:12:41;5.60;99.90
1453;DHT22;720;47.738;7.998;2022-11-20T05:15:07;5.40;99.90
1453;DHT22;720;47.738;7.998;2022-11-20T05:17:32;5.30;99.90
1453;DHT22;720;47.738;7.998;2022-11-20T05:19:58;5.30;99.90
1453;DHT22;720;47.738;7.998;2022-11-20T05:22:25;5.30;99.90
1453;DHT22;720;47.738;7.998;2022-11-20T05:24:51;5.40;99.90
1453;DHT22;720;47.738;7.998;2022-11-20T05:27:16;5.40;99.90
1453;DHT22;720;47.738;7.998;2022-11-20T05:29:42;5.30;99.90
1453;DHT22;720;47.738;7.998;2022-11-20T05:32:07;5.20;99.90
1453;DHT22;720;47.738;7.998;2022-11-20T05:34:35;5.20;99.90
1453;DHT22;720;47.738;7.998;2022-11-20T05:37:01;5.30;99.90
1453;DHT22;720;47.738;7.998;2022-11-20T05:39:27;5.40;99.90
1453;DHT22;720;47.738;7.998;2022-11-20T05:41:53;5.60;99.90
1453;DHT22;720;47.738;7.998;2022-11-20T05:44:39;5.80;99.90
1453;DHT22;720;47.738;7.998;2022-11-20T05:47:05;5.80;99.90
1453;DHT22;720;47.738;7.998;2022-11-20T05:49:30;5.90;99.90
1453;DHT22;720;47.738;7.998;2022-11-20T05:51:56;5.80;99.90
1453;DHT22;720;47.738;7.998;2022-11-20T05:54:22;5.90;99.90
1453;DHT22;720;47.738;7.998;2022-11-20T05:56:47;5.80;99.90
1453;DHT22;720;47.738;7.998;2022-11-20T05:59:13;5.80;99.90
1453;DHT22;720;47.738;7.998;2022-11-20T06:01:38;5.90;99.90
1453;DHT22;720;47.738;7.998;2022-11-20T06:04:04;5.90;99.90
1453;DHT22;720;47.738;7.998;2022-11-20T06:06:30;5.90;99.90
1453;DHT22;720;47.738;7.998;2022-11-20T06:08:55;5.70;99.90
1453;DHT22;720;47.738;7.998;2022-11-20T06:11:21;5.90;99.90
1453;DHT22;720;47.738;7.998;2022-11-20T06:13:47;6.00;99.90
1453;DHT22;720;47.738;7.998;2022-11-20T06:16:15;6.00;99.90
1453;DHT22;720;47.738;7.998;2022-11-20T06:18:41;6.00;99.90
1453;DHT22;720;47.738;7.998;2022-11-20T06:21:10;6.10;99.90
1453;DHT22;720;47.738;7.998;2022-11-20T06:23:36;6.00;99.90
1453;DHT22;720;47.738;7.998;2022-11-20T06:26:07;6.10;99.90
1453;DHT22;720;47.738;7.998;2022-11-20T06:28:33;6.20;99.90
1453;DHT22;720;47.738;7.998;2022-11-20T06:30:59;6.10;99.90
1453;DHT22;720;47.738;7.998;2022-11-20T06:33:26;6.10;99.90
1453;DHT22;720;47.738;7.998;2022-11-20T06:35:56;6.20;99.90
1453;DHT22;720;47.738;7.998;2022-11-20T06:38:24;6.20;99.90
1453;DHT22;720;47.738;7.998;2022-11-20T06:40:50;6.30;99.90
1453;DHT22;720;47.738;7.998;2022-11-20T06:43:15;6.20;99.90
1453;DHT22;720;47.738;7.998;2022-11-20T06:45:41;6.30;99.90
1453;DHT22;720;47.738;7.998;2022-11-20T06:48:06;6.20;99.90
1453;DHT22;720;47.738;7.998;2022-11-20T06:50:32;6.00;99.90
1453;DHT22;720;47.738;7.998;2022-11-20T06:53:01;6.00;99.90
1453;DHT22;720;47.738;7.998;2022-11-20T06:55:27;6.00;99.90
1453;DHT22;720;47.738;7.998;2022-11-20T06:57:53;5.90;99.90
1453;DHT22;720;47.738;7.998;2022-11-20T07:00:19;6.00;99.90
1453;DHT22;720;47.738;7.998;2022-11-20T07:02:44;5.90;99.90
1453;DHT22;720;47.738;7.998;2022-11-20T07:05:10;5.80;99.90
1453;DHT22;720;47.738;7.998;2022-11-20T07:07:36;5.90;99.90
1453;DHT22;720;47.738;7.998;2022-11-20T07:10:01;6.00;99.90
1453;DHT22;720;47.738;7.998;2022-11-20T07:12:27;6.10;99.90
1453;DHT22;720;47.738;7.998;2022-11-20T07:14:52;6.10;99.90
1453;DHT22;720;47.738;7.998;2022-11-20T07:17:18;6.10;99.90
1453;DHT22;720;47.738;7.998;2022-11-20T07:19:44;6.10;99.90
1453;DHT22;720;47.738;7.998;2022-11-20T07:22:09;6.10;99.90
1453;DHT22;720;47.738;7.998;2022-11-20T07:24:35;6.10;99.90
1453;DHT22;720;47.738;7.998;2022-11-20T07:27:01;6.10;99.90
1453;DHT22;720;47.738;7.998;2022-11-20T07:29:26;6.10;99.90
1453;DHT22;720;47.738;7.998;2022-11-20T07:31:52;6.10;99.90
1453;DHT22;720;47.738;7.998;2022-11-20T07:34:17;6.20;99.90
1453;DHT22;720;47.738;7.998;2022-11-20T07:36:43;6.20;99.90
1453;DHT22;720;47.738;7.998;2022-11-20T07:39:08;6.20;99.90
1453;DHT22;720;47.738;7.998;2022-11-20T07:41:34;6.30;99.90
1453;DHT22;720;47.738;7.998;2022-11-20T07:44:00;6.30;99.90
1453;DHT22;720;47.738;7.998;2022-11-20T07:46:25;6.30;99.90
1453;DHT22;720;47.738;7.998;2022-11-20T07:48:51;6.40;99.90
1453;DHT22;720;47.738;7.998;2022-11-20T07:51:17;6.40;99.90
1453;DHT22;720;47.738;7.998;2022-11-20T07:53:42;6.40;99.90
1453;DHT22;720;47.738;7.998;2022-11-20T07:56:08;6.50;99.90
1453;DHT22;720;47.738;7.998;2022-11-20T07:58:35;6.40;99.90
1453;DHT22;720;47.738;7.998;2022-11-20T08:01:04;6.40;99.90
1453;DHT22;720;47.738;7.998;2022-11-20T08:03:30;6.40;99.90
1453;DHT22;720;47.738;7.998;2022-11-20T08:05:59;6.30;99.90
1453;DHT22;720;47.738;7.998;2022-11-20T08:08:26;6.20;99.90
1453;DHT22;720;47.738;7.998;2022-11-20T08:10:52;6.20;99.90
1453;DHT22;720;47.738;7.998;2022-11-20T08:13:17;6.20;99.90
1453;DHT22;720;47.738;7.998;2022-11-20T08:16:15;6.20;99.90
1453;DHT22;720;47.738;7.998;2022-11-20T08:18:41;6.20;99.90
1453;DHT22;720;47.738;7.998;2022-11-20T08:21:07;6.20;99.90
1453;DHT22;720;47.738;7.998;2022-11-20T08:23:33;6.20;99.90
1453;DHT22;720;47.738;7.998;2022-11-20T08:25:58;6.20;99.90
1453;DHT22;720;47.738;7.998;2022-11-20T08:28:24;6.20;99.90
1453;DHT22;720;47.738;7.998;2022-11-20T08:30:50;6.30;99.90
1453;DHT22;720;47.738;7.998;2022-11-20T08:33:15;6.30;99.90
1453;DHT22;720;47.738;7.998;2022-11-20T08:35:42;6.30;99.90
1453;DHT22;720;47.738;7.998;2022-11-20T08:38:08;6.20;99.90
1453;DHT22;720;47.738;7.998;2022-11-20T08:40:34;6.10;99.90
1453;DHT22;720;47.738;7.998;2022-11-20T08:43:00;5.90;99.90
1453;DHT22;720;47.738;7.998;2022-11-20T08:45:26;5.80;99.90
1453;DHT22;720;47.738;7.998;2022-11-20T08:47:51;5.90;99.90
1453;DHT22;720;47.738;7.998;2022-11-20T08:50:17;6.10;99.90
1453;DHT22;720;47.738;7.998;2022-11-20T08:52:43;6.10;99.90
1453;DHT22;720;47.738;7.998;2022-11-20T08:55:09;6.20;99.90
1453;DHT22;720;47.738;7.998;2022-11-20T08:57:36;6.20;99.90
1453;DHT22;720;47.738;7.998;2022-11-20T09:00:04;6.30;99.90
1453;DHT22;720;47.738;7.998;2022-11-20T09:02:31;6.40;99.90
1453;DHT22;720;47.738;7.998;2022-11-20T09:04:57;6.50;99.90
1453;DHT22;720;47.738;7.998;2022-11-20T09:07:23;6.50;99.90
1453;DHT22;720;47.738;7.998;2022-11-20T09:09:49;6.60;99.90
1453;DHT22;720;47.738;7.998;2022-11-20T09:12:15;6.50;99.90
1453;DHT22;720;47.738;7.998;2022-11-20T09:14:40;6.40;99.90
1453;DHT22;720;47.738;7.998;2022-11-20T09:17:06;6.30;99.90
1453;DHT22;720;47.738;7.998;2022-11-20T09:19:33;6.20;99.90
1453;DHT22;720;47.738;7.998;2022-11-20T09:21:58;6.20;99.90
1453;DHT22;720;47.738;7.998;2022-11-20T09:24:25;6.00;99.90
1453;DHT22;720;47.738;7.998;2022-11-20T09:26:51;5.90;99.90
1453;DHT22;720;47.738;7.998;2022-11-20T09:29:17;5.90;99.90
1453;DHT22;720;47.738;7.998;2022-11-20T09:31:42;6.00;99.90
1453;DHT22;720;47.738;7.998;2022-11-20T09:34:08;6.10;99.90
1453;DHT22;720;47.738;7.998;2022-11-20T09:36:34;6.10;99.90
1453;DHT22;720;47.738;7.998;2022-11-20T09:38:59;6.00;99.90
1453;DHT22;720;47.738;7.998;2022-11-20T09:50:32;5.60;99.90
1453;DHT22;720;47.738;7.998;2022-11-20T09:55:29;5.60;99.90
1453;DHT22;720;47.738;7.998;2022-11-20T09:57:57;5.70;99.90
1453;DHT22;720;47.738;7.998;2022-11-20T10:00:25;5.80;99.90
1453;DHT22;720;47.738;7.998;2022-11-20T10:03:00;6.00;99.90
1453;DHT22;720;47.738;7.998;2022-11-20T10:05:46;6.10;99.90
1453;DHT22;720;47.738;7.998;2022-11-20T10:08:25;6.20;99.90
1453;DHT22;720;47.738;7.998;2022-11-20T10:13:39;6.30;99.90
1453;DHT22;720;47.738;7.998;2022-11-20T10:19:44;6.30;99.90
1453;DHT22;720;47.738;7.998;2022-11-20T10:27:52;6.10;99.90
1453;DHT22;720;47.738;7.998;2022-11-20T10:30:21;6.10;99.90
1453;DHT22;720;47.738;7.998;2022-11-20T10:32:52;6.20;99.90
1453;DHT22;720;47.738;7.998;2022-11-20T10:35:31;6.20;99.90
1453;DHT22;720;47.738;7.998;2022-11-20T10:38:01;6.30;99.90
1453;DHT22;720;47.738;7.998;2022-11-20T10:40:50;6.40;99.90
1453;DHT22;720;47.738;7.998;2022-11-20T10:43:32;6.40;99.90
1453;DHT22;720;47.738;7.998;2022-11-20T10:46:17;6.30;99.90
1453;DHT22;720;47.738;7.998;2022-11-20T10:48:45;6.40;99.90
1453;DHT22;720;47.738;7.998;2022-11-20T11:02:22;6.50;99.90
1453;DHT22;720;47.738;7.998;2022-11-20T11:04:50;6.70;99.90
1453;DHT22;720;47.738;7.998;2022-11-20T11:07:31;6.80;99.80
1453;DHT22;720;47.738;7.998;2022-11-20T11:09:59;7.00;99.80
1453;DHT22;720;47.738;7.998;2022-11-20T11:12:27;7.20;99.40
1453;DHT22;720;47.738;7.998;2022-11-20T11:14:55;7.30;99.50
1453;DHT22;720;47.738;7.998;2022-11-20T11:17:33;7.40;99.10
1453;DHT22;720;47.738;7.998;2022-11-20T11:20:16;7.70;99.40
1453;DHT22;720;47.738;7.998;2022-11-20T11:22:45;8.10;99.60
1453;DHT22;720;47.738;7.998;2022-11-20T11:25:24;8.50;99.10
1453;DHT22;720;47.738;7.998;2022-11-20T11:27:50;8.70;98.10
1453;DHT22;720;47.738;7.998;2022-11-20T11:30:19;8.70;97.70
1453;DHT22;720;47.738;7.998;2022-11-20T11:32:45;8.70;96.90
1453;DHT22;720;47.738;7.998;2022-11-20T11:35:25;8.40;96.10
1453;DHT22;720;47.738;7.998;2022-11-20T11:37:54;8.10;96.60
1453;DHT22;720;47.738;7.998;2022-11-20T11:40:22;7.80;97.00
1453;DHT22;720;47.738;7.998;2022-11-20T11:42:57;7.50;96.90
1453;DHT22;720;47.738;7.998;2022-11-20T11:45:24;7.10;97.30
1453;DHT22;720;47.738;7.998;2022-11-20T11:47:51;6.80;97.80
1453;DHT22;720;47.738;7.998;2022-11-20T11:50:27;6.60;98.80
1453;DHT22;720;47.738;7.998;2022-11-20T11:53:16;6.70;99.10
1453;DHT22;720;47.738;7.998;2022-11-20T11:56:03;6.50;98.80
1453;DHT22;720;47.738;7.998;2022-11-20T11:58:50;6.60;99.00
1453;DHT22;720;47.738;7.998;2022-11-20T12:01:34;6.80;98.90
1453;DHT22;720;47.738;7.998;2022-11-20T12:04:50;6.90;99.10
1453;DHT22;720;47.738;7.998;2022-11-20T12:07:42;7.10;98.40
1453;DHT22;720;47.738;7.998;2022-11-20T12:10:40;7.20;98.20
1453;DHT22;720;47.738;7.998;2022-11-20T12:16:12;7.50;98.30
1453;DHT22;720;47.738;7.998;2022-11-20T12:18:39;7.60;98.10
1453;DHT22;720;47.738;7.998;2022-11-20T12:21:18;7.40;97.70
1453;DHT22;720;47.738;7.998;2022-11-20T12:24:19;7.30;98.10
1453;DHT22;720;47.738;7.998;2022-11-20T12:26:45;7.30;98.70
1453;DHT22;720;47.738;7.998;2022-11-20T12:29:23;7.50;99.00
1453;DHT22;720;47.738;7.998;2022-11-20T12:32:05;7.70;98.80
1453;DHT22;720;47.738;7.998;2022-11-20T12:43:11;7.80;98.70
1453;DHT22;720;47.738;7.998;2022-11-20T12:57:17;7.70;97.70
1453;DHT22;720;47.738;7.998;2022-11-20T13:00:09;7.70;97.70
1453;DHT22;720;47.738;7.998;2022-11-20T13:08:34;7.90;98.50
1453;DHT22;720;47.738;7.998;2022-11-20T13:11:34;7.90;97.60
1453;DHT22;720;47.738;7.998;2022-11-20T13:19:40;8.00;97.50
1453;DHT22;720;47.738;7.998;2022-11-20T13:22:08;8.00;97.30
1453;DHT22;720;47.738;7.998;2022-11-20T13:24:33;8.00;97.40
1453;DHT22;720;47.738;7.998;2022-11-20T13:27:22;8.00;97.30
1453;DHT22;720;47.738;7.998;2022-11-20T13:30:12;8.00;97.10
1453;DHT22;720;47.738;7.998;2022-11-20T13:33:06;8.00;97.30
1453;DHT22;720;47.738;7.998;2022-11-20T13:35:42;7.90;97.60
1453;DHT22;720;47.738;7.998;2022-11-20T13:38:13;7.70;97.80
1453;DHT22;720;47.738;7.998;2022-11-20T13:40:59;7.70;98.70
1453;DHT22;720;47.738;7.998;2022-11-20T13:43:47;7.80;98.80
1453;DHT22;720;47.738;7.998;2022-11-20T13:46:13;7.80;97.80
1453;DHT22;720;47.738;7.998;2022-11-20T13:48:41;7.90;98.30
1453;DHT22;720;47.738;7.998;2022-11-20T13:51:37;8.10;97.90
1453;DHT22;720;47.738;7.998;2022-11-20T13:57:19;8.00;97.70
1453;DHT22;720;47.738;7.998;2022-11-20T14:00:11;7.90;98.30
1453;DHT22;720;47.738;7.998;2022-11-20T14:02:38;7.70;98.60
1453;DHT22;720;47.738;7.998;2022-11-20T14:05:04;7.60;98.10
1453;DHT22;720;47.738;7.998;2022-11-20T14:07:41;7.60;98.20
1453;DHT22;720;47.738;7.998;2022-11-20T14:12:45;7.40;98.60
1453;DHT22;720;47.738;7.998;2022-11-20T14:15:31;7.30;98.90
1453;DHT22;720;47.738;7.998;2022-11-20T14:17:57;7.30;98.70
1453;DHT22;720;47.738;7.998;2022-11-20T14:20:28;7.40;98.80
1453;DHT22;720;47.738;7.998;2022-11-20T14:22:55;7.50;98.40
1453;DHT22;720;47.738;7.998;2022-11-20T14:25:25;7.60;97.90
1453;DHT22;720;47.738;7.998;2022-11-20T14:27:59;7.60;97.50
1453;DHT22;720;47.738;7.998;2022-11-20T14:30:36;7.50;97.60
1453;DHT22;720;47.738;7.998;2022-11-20T14:33:03;7.60;97.80
1453;DHT22;720;47.738;7.998;2022-11-20T14:35:33;7.60;97.00
1453;DHT22;720;47.738;7.998;2022-11-20T14:38:01;7.50;96.80
1453;DHT22;720;47.738;7.998;2022-11-20T14:40:35;7.40;97.40
1453;DHT22;720;47.738;7.998;2022-11-20T14:43:04;7.40;97.70
1453;DHT22;720;47.738;7.998;2022-11-20T14:45:40;7.40;97.90
1453;DHT22;720;47.738;7.998;2022-11-20T14:48:09;7.40;97.80
1453;DHT22;720;47.738;7.998;2022-11-20T14:50:37;7.30;98.00
1453;DHT22;720;47.738;7.998;2022-11-20T14:53:03;7.30;98.20
1453;DHT22;720;47.738;7.998;2022-11-20T14:55:34;7.20;98.50
1453;DHT22;720;47.738;7.998;2022-11-20T14:58:23;7.10;98.30
1453;DHT22;720;47.738;7.998;2022-11-20T15:00:56;6.90;98.70
1453;DHT22;720;47.738;7.998;2022-11-20T15:03:22;6.70;98.40
1453;DHT22;720;47.738;7.998;2022-11-20T15:05:49;6.40;98.60
1453;DHT22;720;47.738;7.998;2022-11-20T15:08:16;6.30;99.30
1453;DHT22;720;47.738;7.998;2022-11-20T15:10:49;6.30;99.90
1453;DHT22;720;47.738;7.998;2022-11-20T15:15:49;6.30;99.90
1453;DHT22;720;47.738;7.998;2022-11-20T15:18:37;6.30;99.90
1453;DHT22;720;47.738;7.998;2022-11-20T15:21:11;6.20;99.90
1453;DHT22;720;47.738;7.998;2022-11-20T15:23:37;6.20;99.90
1453;DHT22;720;47.738;7.998;2022-11-20T15:26:11;6.20;99.90
1453;DHT22;720;47.738;7.998;2022-11-20T15:28:42;6.20;99.90
1453;DHT22;720;47.738;7.998;2022-11-20T15:31:12;6.20;99.90
1453;DHT22;720;47.738;7.998;2022-11-20T15:33:38;6.20;99.90
1453;DHT22;720;47.738;7.998;2022-11-20T15:36:04;6.10;99.90
1453;DHT22;720;47.738;7.998;2022-11-20T15:38:30;6.10;99.90
1453;DHT22;720;47.738;7.998;2022-11-20T15:40:56;6.10;99.90
1453;DHT22;720;47.738;7.998;2022-11-20T15:43:22;5.90;99.90
1453;DHT22;720;47.738;7.998;2022-11-20T15:45:56;5.80;99.90
1453;DHT22;720;47.738;7.998;2022-11-20T15:48:34;5.90;99.90
1453;DHT22;720;47.738;7.998;2022-11-20T15:51:11;5.90;99.90
1453;DHT22;720;47.738;7.998;2022-11-20T15:53:39;5.80;99.90
1453;DHT22;720;47.738;7.998;2022-11-20T15:56:05;5.80;99.90
1453;DHT22;720;47.738;7.998;2022-11-20T15:58:31;5.90;99.90
1453;DHT22;720;47.738;7.998;2022-11-20T16:00:57;5.90;99.90
1453;DHT22;720;47.738;7.998;2022-11-20T16:03:23;5.90;99.90
1453;DHT22;720;47.738;7.998;2022-11-20T16:05:49;5.80;99.90
1453;DHT22;720;47.738;7.998;2022-11-20T16:08:15;5.80;99.90
1453;DHT22;720;47.738;7.998;2022-11-20T16:10:41;5.70;99.90
1453;DHT22;720;47.738;7.998;2022-11-20T16:13:12;5.80;99.90
1453;DHT22;720;47.738;7.998;2022-11-20T16:15:59;5.80;99.90
1453;DHT22;720;47.738;7.998;2022-11-20T16:18:25;5.80;99.90
1453;DHT22;720;47.738;7.998;2022-11-20T16:20:54;5.80;99.90
1453;DHT22;720;47.738;7.998;2022-11-20T16:23:20;5.80;99.90
1453;DHT22;720;47.738;7.998;2022-11-20T16:25:47;5.70;99.90
1453;DHT22;720;47.738;7.998;2022-11-20T16:28:13;5.70;99.90
1453;DHT22;720;47.738;7.998;2022-11-20T16:30:39;5.70;99.90
1453;DHT22;720;47.738;7.998;2022-11-20T16:33:09;5.70;99.90
1453;DHT22;720;47.738;7.998;2022-11-20T16:35:35;5.70;99.90
1453;DHT22;720;47.738;7.998;2022-11-20T16:38:00;5.80;99.90
1453;DHT22;720;47.738;7.998;2022-11-20T16:40:26;5.80;99.90
1453;DHT22;720;47.738;7.998;2022-11-20T16:42:52;5.80;99.90
1453;DHT22;720;47.738;7.998;2022-11-20T16:45:18;5.80;99.90
1453;DHT22;720;47.738;7.998;2022-11-20T16:47:44;5.80;99.90
1453;DHT22;720;47.738;7.998;2022-11-20T16:50:09;5.80;99.90
1453;DHT22;720;47.738;7.998;2022-11-20T16:52:35;5.80;99.90
1453;DHT22;720;47.738;7.998;2022-11-20T16:55:01;5.80;99.90
1453;DHT22;720;47.738;7.998;2022-11-20T16:57:30;5.70;99.90
1453;DHT22;720;47.738;7.998;2022-11-20T16:59:58;5.80;99.90
1453;DHT22;720;47.738;7.998;2022-11-20T17:02:24;5.80;99.90
1453;DHT22;720;47.738;7.998;2022-11-20T17:04:51;5.90;99.90
1453;DHT22;720;47.738;7.998;2022-11-20T17:07:16;5.90;99.90
1453;DHT22;720;47.738;7.998;2022-11-20T17:09:42;5.90;99.90
1453;DHT22;720;47.738;7.998;2022-11-20T17:12:08;5.90;99.90
1453;DHT22;720;47.738;7.998;2022-11-20T17:14:34;6.00;99.90
1453;DHT22;720;47.738;7.998;2022-11-20T17:16:59;5.90;99.90
1453;DHT22;720;47.738;7.998;2022-11-20T17:19:25;5.80;99.90
1453;DHT22;720;47.738;7.998;2022-11-20T17:21:51;5.80;99.90
1453;DHT22;720;47.738;7.998;2022-11-20T17:24:16;5.80;99.90
1453;DHT22;720;47.738;7.998;2022-11-20T17:26:43;5.80;99.90
1453;DHT22;720;47.738;7.998;2022-11-20T17:29:16;5.80;99.90
1453;DHT22;720;47.738;7.998;2022-11-20T17:31:43;5.90;99.90
1453;DHT22;720;47.738;7.998;2022-11-20T17:34:11;5.90;99.90
1453;DHT22;720;47.738;7.998;2022-11-20T17:36:38;6.00;99.90
1453;DHT22;720;47.738;7.998;2022-11-20T17:39:10;6.10;99.90
1453;DHT22;720;47.738;7.998;2022-11-20T17:41:36;6.20;99.90
1453;DHT22;720;47.738;7.998;2022-11-20T17:44:02;6.20;99.90
1453;DHT22;720;47.738;7.998;2022-11-20T17:46:30;6.20;99.90
1453;DHT22;720;47.738;7.998;2022-11-20T17:48:59;6.30;99.90
1453;DHT22;720;47.738;7.998;2022-11-20T17:51:28;6.30;99.90
1453;DHT22;720;47.738;7.998;2022-11-20T17:53:56;6.30;99.90
1453;DHT22;720;47.738;7.998;2022-11-20T17:56:22;6.40;99.90
1453;DHT22;720;47.738;7.998;2022-11-20T17:59:11;6.40;99.90
1453;DHT22;720;47.738;7.998;2022-11-20T18:01:37;6.30;99.90
1453;DHT22;720;47.738;7.998;2022-11-20T18:04:04;6.30;99.90
1453;DHT22;720;47.738;7.998;2022-11-20T18:06:30;6.40;99.90
1453;DHT22;720;47.738;7.998;2022-11-20T18:09:00;6.40;99.90
1453;DHT22;720;47.738;7.998;2022-11-20T18:11:32;6.50;99.90
1453;DHT22;720;47.738;7.998;2022-11-20T18:14:02;6.40;99.50
1453;DHT22;720;47.738;7.998;2022-11-20T18:16:54;6.40;99.60